Aurora, IL

9:57 PM CDT on May 04, 2015 (GMT -0500)
Stonehaven | | Change Station
CLOSE
Current Station
Personal Weather Station
Location: Aurora, IL
Elevation: 699 ft
Nearby Weather Stations

Elev 699 ft 41.74 °N, 88.21 °W | Updated 13 minutes ago

Partly Cloudy
Partly Cloudy
59.4 °F
Feels Like 59.4 °F
N
3.7
Wind Variable Wind from East

Today
High -- | Low -- °F
--% Chance of Precip.
Yesterday
High -- | Low -- °F
Precip. -- in
5:45 AM 7:54 PM
Full, 99% visible
Pressure 30.18 in
Visibility 10.0 miles
Clouds Scattered Clouds 10000 ft
Dew Point 50 °F
Humidity 70%
Rainfall 0.02 in
Snow Depth Not available.
UV 0 out of 12
Pollen 1.20 out of 12
Air Quality Not available.
Flu Activity Local Activity
METAR KDPA 050252Z 05007KT 10SM SCT100 14/06 A3018 RMK AO2 SLP218 T01390061 51016

More Conditions Fewer Conditions

Pressure 30.18 in
Visibility 10.0 miles
Clouds Scattered Clouds 10000 ft
Dew Point 50 °F
Humidity 70%
Rainfall 0.02 in
Snow Depth Not available.
UV 0 out of 12
Pollen 1.20 out of 12
Air Quality Not available.
Flu Activity Local Activity
METAR KDPA 050252Z 05007KT 10SM SCT100 14/06 A3018 RMK AO2 SLP218 T01390061 51016

More Conditions Fewer Conditions

Nepal has a long way to go to dig out and rebuild from a devastating earthquake. We have teamed up with several charities and organizations to make contributing to the relief effort as easy as possible.
How you can help: Portlight Strategies | Red Cross

10-Day Weather Forecast

Almanac

Astronomy

May. 04, 2015 Rise Set
Actual Time
Civil Twilight
Nautical Twilight
Astronomical Twilight
Moon
Length of Visible Light
Length of Day
Tomorrow will be .
, % of the Moon is Illuminated

Today's Extremes

State Highs State Lows

Community

WunderPhotos

Upload Photos

1,818,793 photos uploaded!

WunderBlogs® & News

Nearby

Air Quality

  Air Quality AQ Index Pollutant
Not available.

Snow Depth

Station Depth Elevation

Earthquake Activity

City Distance Mag. Time & Date
Minimum magnitude displayed is 2.5.

Coastal Water Temperatures

Place Temperature

Stations

Nearby Weather Stations

Station Location Temp. Windchill Dew Point Humidity Wind Precip. Elev Updated Type